Time;durP1;ratioP1;P1;durP2;ratioP2;P2;SDS_P1;SDS_P2;PMS_P1;PMS_P2;Temp;Humidity;BMP_temperature;BMP_pressure;BME280_temperature;BME280_humidity;BME280_pressure;Samples;Min_cycle;Max_cycle;Signal;HPM_P1;HPM_P2
2022/02/24 00:09:36;;;;;;;15.9;25.6;;;;;;;0.1;76.4;99610;;;;
2022/02/24 00:20:36;;;;;;;15.9;25.6;;;;;;;0.1;76.2;99600;;;;
2022/02/24 00:31:36;;;;;;;15.9;25.6;;;;;;;-0.1;76.5;99600;;;;
2022/02/24 00:42:36;;;;;;;16.5;24.5;;;;;;;-0.4;76.7;99590;;;;
2022/02/24 00:52:36;;;;;;;16.5;24.5;;;;;;;-0.6;76.7;99580;;;;
2022/02/24 01:02:36;;;;;;;16.5;24.5;;;;;;;-0.8;77.7;99570;;;;
2022/02/24 01:13:36;;;;;;;18.8;29.1;;;;;;;-0.9;77.9;99570;;;;
2022/02/24 01:23:36;;;;;;;18.8;29.1;;;;;;;-1.1;78.2;99570;;;;
2022/02/24 01:34:36;;;;;;;18.8;29.1;;;;;;;-1.3;78.7;99560;;;;
2022/02/24 01:45:36;;;;;;;20.9;34.6;;;;;;;-1.4;79.3;99550;;;;
2022/02/24 01:55:36;;;;;;;20.9;34.6;;;;;;;-1.4;80;99560;;;;
2022/02/24 02:06:37;;;;;;;20.9;34.6;;;;;;;-1.6;79.7;99560;;;;
2022/02/24 02:16:36;;;;;;;16.5;25.1;;;;;;;-1.7;79.9;99560;;;;
2022/02/24 02:27:36;;;;;;;16.5;25.1;;;;;;;-1.7;80.9;99570;;;;
2022/02/24 02:38:36;;;;;;;13.7;26;;;;;;;-1.7;81;99560;;;;
2022/02/24 02:49:38;;;;;;;13.7;26;;;;;;;-1.5;82.6;99560;;;;
2022/02/24 02:59:36;;;;;;;13.7;26;;;;;;;-1.7;81.3;99560;;;;
2022/02/24 03:10:36;;;;;;;13.4;19.9;;;;;;;-1.9;81;99550;;;;
2022/02/24 03:20:36;;;;;;;13.4;19.9;;;;;;;-2;80.9;99560;;;;
2022/02/24 03:30:37;;;;;;;13.4;19.9;;;;;;;-2.1;81;99550;;;;
2022/02/24 03:40:36;;;;;;;13.6;20.4;;;;;;;-2.1;81.4;99540;;;;
2022/02/24 03:50:36;;;;;;;13.6;20.4;;;;;;;-2.2;81.4;99530;;;;
2022/02/24 04:01:36;;;;;;;13.6;20.4;;;;;;;-2.3;81.7;99530;;;;
2022/02/24 04:11:36;;;;;;;20.9;30.5;;;;;;;-2.4;81.8;99520;;;;
2022/02/24 04:22:36;;;;;;;20.9;30.5;;;;;;;-2.4;82.9;99510;;;;
2022/02/24 04:33:36;;;;;;;20.9;30.5;;;;;;;-2.3;83.1;99510;;;;
2022/02/24 04:44:36;;;;;;;20.8;26.3;;;;;;;-2.4;82.5;99500;;;;
2022/02/24 04:55:36;;;;;;;20.8;26.3;;;;;;;-2.6;82.2;99490;;;;
2022/02/24 05:05:36;;;;;;;20.8;26.3;;;;;;;-2.6;82.5;99480;;;;
2022/02/24 05:16:36;;;;;;;18.6;24.3;;;;;;;-2.6;82.2;99470;;;;
2022/02/24 05:27:36;;;;;;;18.6;24.3;;;;;;;-2.8;81.9;99460;;;;
2022/02/24 05:38:36;;;;;;;14.4;20.5;;;;;;;-2.5;83;99450;;;;
2022/02/24 05:48:36;;;;;;;14.4;20.5;;;;;;;-1.5;83;99450;;;;
2022/02/24 05:59:36;;;;;;;14.4;20.5;;;;;;;-1.2;81.7;99460;;;;
2022/02/24 06:10:36;;;;;;;8.3;15.3;;;;;;;-0.9;80.4;99460;;;;
2022/02/24 06:20:36;;;;;;;8.3;15.3;;;;;;;-1.2;79.6;99440;;;;
2022/02/24 06:31:37;;;;;;;8.3;15.3;;;;;;;-1.3;79.6;99430;;;;
2022/02/24 06:41:36;;;;;;;31.9;42;;;;;;;-1.3;79.9;99440;;;;
2022/02/24 06:51:36;;;;;;;31.9;42;;;;;;;-1.1;80.4;99440;;;;
2022/02/24 07:01:36;;;;;;;31.9;42;;;;;;;-0.8;80.7;99440;;;;
2022/02/24 07:11:36;;;;;;;27.7;35.5;;;;;;;-0.4;80.3;99440;;;;
2022/02/24 07:22:36;;;;;;;27.7;35.5;;;;;;;0;79.5;99420;;;;
2022/02/24 07:33:36;;;;;;;27.7;35.5;;;;;;;0.5;77.5;99400;;;;
2022/02/24 07:43:36;;;;;;;23;35.2;;;;;;;1;78;99400;;;;
2022/02/24 07:54:36;;;;;;;23;35.2;;;;;;;1.6;76.7;99390;;;;
2022/02/24 08:05:36;;;;;;;23;35.2;;;;;;;2.1;75.2;99370;;;;
2022/02/24 08:15:36;;;;;;;27.7;35.7;;;;;;;2.6;74.5;99360;;;;
2022/02/24 08:26:36;;;;;;;27.7;35.7;;;;;;;3.3;72.7;99350;;;;
2022/02/24 08:37:36;;;;;;;21.1;28;;;;;;;4;70.2;99330;;;;
2022/02/24 08:54:16;;;;;;;13.7;22.8;;;;;;;5;65.7;99310;;;;
2022/02/24 09:04:18;;;;;;;13.7;22.8;;;;;;;5.6;59;99290;;;;
2022/02/24 09:14:16;;;;;;;13.7;22.8;;;;;;;6.2;56.9;99260;;;;
2022/02/24 09:25:16;;;;;;;7.6;10.5;;;;;;;6.7;56.3;99250;;;;
2022/02/24 09:35:17;;;;;;;7.6;10.5;;;;;;;7.1;54.6;99230;;;;
2022/02/24 09:45:16;;;;;;;7.6;10.5;;;;;;;7.5;53;99220;;;;
2022/02/24 09:56:16;;;;;;;8.2;13.2;;;;;;;7.9;50;99190;;;;
2022/02/24 10:07:16;;;;;;;8.2;13.2;;;;;;;8.2;46.5;99160;;;;
2022/02/24 10:17:16;;;;;;;3.7;7.1;;;;;;;8.5;45.3;99130;;;;
2022/02/24 10:28:16;;;;;;;3.7;7.1;;;;;;;8.7;43.2;99110;;;;
2022/02/24 10:39:17;;;;;;;3.7;7.1;;;;;;;9.2;40.6;99080;;;;
2022/02/24 10:50:16;;;;;;;3.9;7.9;;;;;;;9.8;42.2;99060;;;;
2022/02/24 11:01:17;;;;;;;3.9;7.9;;;;;;;10.1;42.3;99040;;;;
2022/02/24 11:12:16;;;;;;;3.9;7.9;;;;;;;10.1;38.1;99010;;;;
2022/02/24 11:22:16;;;;;;;3.6;5.7;;;;;;;10.3;36.5;99000;;;;
2022/02/24 11:33:16;;;;;;;3.6;5.7;;;;;;;10.8;37.4;98980;;;;
2022/02/24 11:44:16;;;;;;;3.6;5.7;;;;;;;11.2;36.4;98960;;;;
2022/02/24 11:55:16;;;;;;;3.4;7.3;;;;;;;11.7;35;98940;;;;
2022/02/24 12:05:17;;;;;;;3.4;7.3;;;;;;;11.6;33.9;98920;;;;
2022/02/24 12:16:18;;;;;;;3.1;10.5;;;;;;;12.2;34.1;98900;;;;
2022/02/24 12:26:18;;;;;;;3.1;10.5;;;;;;;12.3;31.3;98890;;;;
2022/02/24 12:36:16;;;;;;;3.1;10.5;;;;;;;12.6;32.4;98880;;;;
2022/02/24 12:46:16;;;;;;;2.4;4.7;;;;;;;12.9;29.6;98860;;;;
2022/02/24 12:56:16;;;;;;;2.4;4.7;;;;;;;13;28.4;98850;;;;
2022/02/24 13:09:42;;;;;;;2.4;4.7;;;;;;;13.1;30.1;98820;;;;
2022/02/24 13:17:16;;;;;;;3.2;6;;;;;;;13.2;28.9;98800;;;;
2022/02/24 13:28:16;;;;;;;3.2;6;;;;;;;13.4;29;98780;;;;
2022/02/24 13:38:16;;;;;;;3.2;6;;;;;;;13.2;29;98770;;;;
2022/02/24 13:49:18;;;;;;;3.6;7.8;;;;;;;13;30.4;98750;;;;
2022/02/24 14:00:16;;;;;;;3.6;7.8;;;;;;;13.3;31;98730;;;;
2022/02/24 14:10:16;;;;;;;3.6;7.8;;;;;;;13.4;30.1;98720;;;;
2022/02/24 14:20:17;;;;;;;3.6;6.7;;;;;;;13.5;31.8;98710;;;;
2022/02/24 14:30:16;;;;;;;3.6;6.7;;;;;;;13.6;31;98680;;;;
2022/02/24 14:41:16;;;;;;;3.6;6.7;;;;;;;13.4;30;98650;;;;
2022/02/24 14:51:16;;;;;;;4.4;8.2;;;;;;;13;31.4;98640;;;;
2022/02/24 15:02:16;;;;;;;4.4;8.2;;;;;;;12.3;33.1;98640;;;;
2022/02/24 15:12:16;;;;;;;4.4;8.2;;;;;;;11.8;34.6;98620;;;;
2022/02/24 15:22:16;;;;;;;6.6;12.3;;;;;;;11.2;37.6;98620;;;;
2022/02/24 15:32:16;;;;;;;6.6;12.3;;;;;;;10.8;38.4;98620;;;;
2022/02/24 15:43:16;;;;;;;6.6;12.3;;;;;;;10.3;38.3;98610;;;;
2022/02/24 15:54:16;;;;;;;6.2;11.2;;;;;;;9.6;39.3;98590;;;;
2022/02/24 16:04:16;;;;;;;6.2;11.2;;;;;;;8.9;40.1;98590;;;;
2022/02/24 16:14:16;;;;;;;6.2;11.2;;;;;;;8.3;39.6;98580;;;;
2022/02/24 16:25:16;;;;;;;7.1;13;;;;;;;7.9;40;98560;;;;
2022/02/24 16:36:19;;;;;;;7.1;13;;;;;;;7.3;41.1;98570;;;;
2022/02/24 16:47:16;;;;;;;7.2;9.8;;;;;;;6.8;42.1;98580;;;;
2022/02/24 16:57:16;;;;;;;7.2;9.8;;;;;;;6.5;43.4;98580;;;;
2022/02/24 17:08:16;;;;;;;7.2;9.8;;;;;;;6.2;42.6;98580;;;;
2022/02/24 17:19:16;;;;;;;34.8;44;;;;;;;5.8;45;98580;;;;
2022/02/24 17:29:16;;;;;;;34.8;44;;;;;;;5.5;46.5;98570;;;;
2022/02/24 17:39:16;;;;;;;34.8;44;;;;;;;5.1;48.6;98560;;;;
2022/02/24 17:50:16;;;;;;;19.4;26.6;;;;;;;5.3;49.1;98560;;;;
2022/02/24 18:01:16;;;;;;;19.4;26.6;;;;;;;5.5;48.4;98560;;;;
2022/02/24 18:12:16;;;;;;;19.4;26.6;;;;;;;5.3;50.6;98540;;;;
2022/02/24 18:22:16;;;;;;;19.1;26.8;;;;;;;5.1;51.4;98530;;;;
2022/02/24 18:32:16;;;;;;;19.1;26.8;;;;;;;4.7;50.9;98520;;;;
2022/02/24 18:43:16;;;;;;;19.1;26.8;;;;;;;4.3;51.1;98520;;;;
2022/02/24 18:53:16;;;;;;;20.1;29.7;;;;;;;3.8;52.2;98520;;;;
2022/02/24 19:04:16;;;;;;;20.1;29.7;;;;;;;3.8;53.6;98510;;;;
2022/02/24 19:14:16;;;;;;;20.1;29.7;;;;;;;3.6;53.8;98500;;;;
2022/02/24 19:24:16;;;;;;;46.6;58.6;;;;;;;3.2;54.7;98500;;;;
2022/02/24 19:35:16;;;;;;;46.6;58.6;;;;;;;2.8;55.8;98500;;;;
2022/02/24 19:46:17;;;;;;;34.1;44.1;;;;;;;2.9;56.3;98500;;;;
2022/02/24 19:57:16;;;;;;;34.1;44.1;;;;;;;2.6;56.5;98490;;;;
2022/02/24 20:07:16;;;;;;;34.1;44.1;;;;;;;2.7;56.8;98490;;;;
2022/02/24 20:17:16;;;;;;;18.8;25.7;;;;;;;2.7;57.1;98490;;;;
2022/02/24 20:27:16;;;;;;;18.8;25.7;;;;;;;2.8;58.4;98490;;;;
2022/02/24 20:38:16;;;;;;;18.8;25.7;;;;;;;2.8;58.1;98470;;;;
2022/02/24 20:49:16;;;;;;;17.4;23.5;;;;;;;3;58.4;98480;;;;
2022/02/24 21:00:16;;;;;;;17.4;23.5;;;;;;;3.1;57.6;98470;;;;
2022/02/24 21:10:16;;;;;;;17.4;23.5;;;;;;;3;58.6;98480;;;;
2022/02/24 21:21:16;;;;;;;18.2;27.6;;;;;;;3.1;58.9;98470;;;;
2022/02/24 21:31:16;;;;;;;18.2;27.6;;;;;;;3;58.3;98470;;;;
2022/02/24 21:41:16;;;;;;;18.2;27.6;;;;;;;2.8;58.8;98470;;;;
2022/02/24 21:52:16;;;;;;;18;22.2;;;;;;;2.7;58.9;98470;;;;
2022/02/24 22:02:16;;;;;;;18;22.2;;;;;;;2.5;59.3;98480;;;;
2022/02/24 22:13:16;;;;;;;18;22.2;;;;;;;2.4;60.1;98490;;;;
2022/02/24 22:23:16;;;;;;;13.9;21.5;;;;;;;2.4;59.8;98460;;;;
2022/02/24 22:34:16;;;;;;;13.9;21.5;;;;;;;2.4;59.9;98460;;;;
2022/02/24 22:45:16;;;;;;;10.2;13.7;;;;;;;2.6;60.1;98450;;;;
2022/02/24 22:55:16;;;;;;;10.2;13.7;;;;;;;3.3;59.6;98430;;;;
2022/02/24 23:05:48;;;;;;;10.2;13.7;;;;;;;4.2;55.9;98440;;;;
2022/02/24 23:16:16;;;;;;;8.8;14.6;;;;;;;4.6;54.5;98450;;;;
2022/02/24 23:26:16;;;;;;;8.8;14.6;;;;;;;4.3;55.2;98460;;;;
2022/02/24 23:37:16;;;;;;;8.8;14.6;;;;;;;5;53.8;98450;;;;
2022/02/24 23:47:16;;;;;;;7.7;13.5;;;;;;;5.1;55;98420;;;;
2022/02/24 23:58:16;;;;;;;7.7;13.5;;;;;;;5.2;53.3;98410;;;;
